createdAt,value
2019-03-30T00:01:12.340Z,60.73
2019-03-30T00:03:36.784Z,60.57
2019-03-30T00:06:01.279Z,60.67
2019-03-30T00:08:25.870Z,60.97
2019-03-30T00:10:50.619Z,61.11
2019-03-30T00:13:15.052Z,61.07
2019-03-30T00:15:39.534Z,60.96
2019-03-30T00:18:04.031Z,60.68
2019-03-30T00:20:28.466Z,60.83
2019-03-30T00:22:52.899Z,60.82
2019-03-30T00:25:17.317Z,60.93
2019-03-30T00:27:41.763Z,61.31
2019-03-30T00:30:07.595Z,61.47
2019-03-30T00:32:32.049Z,61.54
2019-03-30T00:34:56.468Z,61.14
2019-03-30T00:37:20.912Z,61.44
2019-03-30T00:39:45.333Z,62.05
2019-03-30T00:42:09.738Z,61.90
2019-03-30T00:44:34.265Z,62.11
2019-03-30T00:46:58.698Z,61.99
2019-03-30T00:49:23.129Z,61.42
2019-03-30T00:51:47.665Z,62.32
2019-03-30T00:54:12.248Z,62.78
2019-03-30T00:56:36.682Z,63.14
2019-03-30T00:59:01.227Z,63.57
2019-03-30T01:01:25.813Z,63.56
2019-03-30T01:03:50.323Z,63.37
2019-03-30T01:06:15.000Z,64.14
2019-03-30T01:08:39.479Z,65.33
2019-03-30T01:11:04.173Z,65.09
2019-03-30T01:13:28.684Z,64.15
2019-03-30T01:15:58.273Z,64.93
2019-03-30T01:18:22.700Z,64.37
2019-03-30T01:20:47.333Z,64.46
2019-03-30T01:23:11.837Z,63.45
2019-03-30T01:25:36.258Z,63.73
2019-03-30T01:28:00.706Z,63.97
2019-03-30T01:30:25.170Z,64.08
2019-03-30T01:32:49.716Z,64.25
2019-03-30T01:35:14.309Z,64.08
2019-03-30T01:37:38.768Z,63.76
2019-03-30T01:40:03.689Z,63.68
2019-03-30T01:42:28.116Z,63.74
2019-03-30T01:44:52.573Z,64.06
2019-03-30T01:47:17.000Z,64.57
2019-03-30T01:49:41.513Z,64.35
2019-03-30T01:52:05.936Z,64.61
2019-03-30T01:54:30.467Z,64.30
2019-03-30T01:56:54.890Z,64.82
2019-03-30T01:59:19.337Z,64.54
2019-03-30T02:01:43.764Z,64.29
2019-03-30T02:04:08.297Z,64.18
2019-03-30T02:06:32.790Z,64.22
2019-03-30T02:08:57.305Z,64.28
2019-03-30T02:11:21.795Z,63.97
2019-03-30T02:13:46.233Z,64.12
2019-03-30T02:16:10.661Z,64.24
2019-03-30T02:18:35.254Z,64.12
2019-03-30T02:20:59.740Z,64.30
2019-03-30T02:23:24.259Z,64.21
2019-03-30T02:25:48.718Z,63.87
2019-03-30T02:28:13.273Z,63.44
2019-03-30T02:30:38.261Z,64.08
2019-03-30T02:33:02.756Z,64.61
2019-03-30T02:35:27.277Z,63.85
2019-03-30T02:37:51.780Z,63.84
2019-03-30T02:40:16.300Z,63.54
2019-03-30T02:42:40.707Z,63.77
2019-03-30T02:45:06.584Z,63.99
2019-03-30T02:47:31.085Z,63.83
2019-03-30T02:49:55.540Z,64.30
2019-03-30T02:52:19.968Z,63.98
2019-03-30T02:54:44.413Z,63.88
2019-03-30T02:57:08.906Z,64.36
2019-03-30T02:59:33.372Z,64.36
2019-03-30T03:01:57.967Z,64.22
2019-03-30T03:04:22.414Z,64.28
2019-03-30T03:06:46.839Z,64.17
2019-03-30T03:09:11.286Z,64.56
2019-03-30T03:11:35.698Z,64.15
2019-03-30T03:14:00.272Z,64.78
2019-03-30T03:16:27.317Z,64.52
2019-03-30T03:18:50.816Z,64.36
2019-03-30T03:21:15.223Z,64.49
2019-03-30T03:23:39.689Z,64.71
2019-03-30T03:26:04.169Z,64.66
2019-03-30T03:28:28.597Z,63.93
2019-03-30T03:30:53.100Z,63.79
2019-03-30T03:33:17.512Z,63.46
2019-03-30T03:35:41.954Z,63.74
2019-03-30T03:38:06.387Z,64.27
2019-03-30T03:40:30.841Z,64.06
2019-03-30T03:42:55.330Z,63.71
2019-03-30T03:45:19.778Z,63.63
2019-03-30T03:47:44.275Z,64.01
2019-03-30T03:50:10.913Z,63.74
2019-03-30T03:52:35.774Z,63.80
2019-03-30T03:55:00.603Z,63.79
2019-03-30T03:57:27.972Z,63.75
2019-03-30T03:59:53.556Z,63.85
2019-03-30T04:02:19.714Z,64.02
2019-03-30T04:04:47.614Z,64.20
2019-03-30T04:07:13.658Z,64.45
2019-03-30T04:09:40.282Z,64.75
2019-03-30T04:12:07.909Z,65.03
2019-03-30T04:14:35.143Z,65.18
2019-03-30T04:16:59.559Z,65.10
2019-03-30T04:19:23.988Z,65.08
2019-03-30T04:21:48.545Z,65.52
2019-03-30T04:24:12.979Z,65.20
2019-03-30T04:26:37.400Z,65.01
2019-03-30T04:29:01.826Z,65.23
2019-03-30T04:31:26.266Z,65.27
2019-03-30T04:33:50.689Z,65.42
2019-03-30T04:36:15.124Z,66.03
2019-03-30T04:38:39.550Z,65.50
2019-03-30T04:41:04.127Z,65.29
2019-03-30T04:43:28.530Z,66.11
2019-03-30T04:45:52.974Z,65.68
2019-03-30T04:48:17.391Z,66.29
2019-03-30T04:50:41.902Z,66.49
2019-03-30T04:53:06.319Z,66.20
2019-03-30T04:55:30.753Z,65.74
2019-03-30T04:57:57.723Z,66.03
2019-03-30T05:00:21.483Z,65.72
2019-03-30T05:02:45.912Z,65.78
2019-03-30T05:05:10.516Z,65.48
2019-03-30T05:07:34.932Z,66.06
2019-03-30T05:09:59.361Z,65.64
2019-03-30T05:12:23.781Z,65.45
2019-03-30T05:14:48.412Z,65.35
2019-03-30T05:17:12.817Z,65.60
2019-03-30T05:19:37.320Z,65.36
2019-03-30T05:22:12.016Z,65.80
2019-03-30T05:24:27.934Z,65.43
2019-03-30T05:26:52.384Z,65.67
2019-03-30T05:29:16.788Z,65.35
2019-03-30T05:31:41.298Z,65.71
2019-03-30T05:34:05.793Z,65.88
2019-03-30T05:36:30.272Z,65.58
2019-03-30T05:38:54.687Z,65.52
2019-03-30T05:41:19.128Z,65.41
2019-03-30T05:43:43.541Z,65.46
2019-03-30T05:46:08.030Z,65.77
2019-03-30T05:48:32.454Z,65.89
2019-03-30T05:50:56.898Z,65.67
2019-03-30T05:53:21.442Z,65.74
2019-03-30T05:55:45.887Z,66.11
2019-03-30T05:58:10.312Z,65.59
2019-03-30T06:00:34.738Z,65.64
2019-03-30T06:02:59.402Z,65.92
2019-03-30T06:05:23.844Z,65.39
2019-03-30T06:07:48.272Z,65.14
2019-03-30T06:10:13.567Z,65.32
2019-03-30T06:12:38.164Z,65.66
2019-03-30T06:15:02.590Z,65.65
2019-03-30T06:17:27.058Z,65.59
2019-03-30T06:19:51.478Z,65.05
2019-03-30T06:22:15.998Z,65.14
2019-03-30T06:24:40.418Z,65.23
2019-03-30T06:27:04.941Z,65.07
2019-03-30T06:29:29.376Z,65.45
2019-03-30T06:31:53.821Z,65.21
2019-03-30T06:34:18.443Z,64.96
2019-03-30T06:36:42.913Z,65.16
2019-03-30T06:39:07.402Z,65.06
2019-03-30T06:41:31.850Z,65.54
2019-03-30T06:43:56.493Z,66.35
2019-03-30T06:46:20.920Z,66.49
2019-03-30T06:48:45.339Z,65.72
2019-03-30T06:51:09.779Z,65.58
2019-03-30T06:53:34.837Z,65.20
2019-03-30T06:55:59.357Z,64.77
2019-03-30T06:58:23.782Z,65.55
2019-03-30T07:00:48.772Z,65.20
2019-03-30T07:03:13.367Z,64.65
2019-03-30T07:05:41.934Z,64.65
2019-03-30T07:08:09.480Z,65.79
2019-03-30T07:10:34.043Z,66.23
2019-03-30T07:13:01.176Z,65.76
2019-03-30T07:15:27.749Z,65.86
2019-03-30T07:17:54.065Z,65.88
2019-03-30T07:20:29.285Z,66.01
2019-03-30T07:22:53.963Z,65.35
2019-03-30T07:25:18.391Z,65.54
2019-03-30T07:27:42.832Z,65.46
2019-03-30T07:30:08.679Z,65.20
2019-03-30T07:32:33.200Z,64.71
2019-03-30T07:34:57.628Z,64.06
2019-03-30T07:37:22.150Z,63.80
2019-03-30T07:39:46.566Z,63.74
2019-03-30T07:42:11.114Z,63.69
2019-03-30T07:44:35.544Z,63.66
2019-03-30T07:46:59.986Z,64.03
2019-03-30T07:49:24.407Z,63.78
2019-03-30T07:51:48.851Z,63.19
2019-03-30T07:54:13.269Z,62.32
2019-03-30T07:56:37.710Z,62.51
2019-03-30T07:59:02.241Z,61.75
2019-03-30T08:01:26.704Z,61.64
2019-03-30T08:03:51.167Z,61.18
2019-03-30T08:06:15.595Z,60.94
2019-03-30T08:08:40.037Z,60.89
2019-03-30T08:11:04.439Z,62.17
2019-03-30T08:13:29.268Z,61.94
2019-03-30T08:15:53.689Z,62.08
2019-03-30T08:18:18.128Z,61.58
2019-03-30T08:20:42.536Z,60.88
2019-03-30T08:23:07.119Z,60.90
2019-03-30T08:25:31.531Z,60.33
2019-03-30T08:27:56.038Z,60.70
2019-03-30T08:30:20.514Z,60.11
2019-03-30T08:32:44.958Z,60.66
2019-03-30T08:35:09.508Z,60.11
2019-03-30T08:37:34.021Z,59.51
2019-03-30T08:39:58.439Z,59.53
2019-03-30T08:42:22.892Z,59.41
2019-03-30T08:44:47.318Z,58.78
2019-03-30T08:47:11.760Z,59.07
2019-03-30T08:49:36.198Z,58.74
2019-03-30T08:52:00.598Z,59.04
2019-03-30T08:54:25.121Z,57.46
2019-03-30T08:56:49.522Z,56.89
2019-03-30T08:59:13.956Z,58.20
2019-03-30T09:01:38.375Z,57.18
2019-03-30T09:04:02.865Z,56.51
2019-03-30T09:06:27.313Z,56.29
2019-03-30T09:08:51.821Z,55.87
2019-03-30T09:11:16.244Z,55.83
2019-03-30T09:13:40.828Z,55.31
2019-03-30T09:16:05.328Z,54.83
2019-03-30T09:18:29.835Z,54.78
2019-03-30T09:20:54.251Z,54.39
2019-03-30T09:23:18.697Z,55.04
2019-03-30T09:25:43.125Z,53.94
2019-03-30T09:28:07.638Z,54.01
2019-03-30T09:30:32.125Z,54.03
2019-03-30T09:32:56.566Z,53.44
2019-03-30T09:35:21.041Z,52.91
2019-03-30T09:37:45.466Z,52.43
2019-03-30T09:40:11.507Z,52.37
2019-03-30T09:42:36.154Z,52.70
2019-03-30T09:45:00.668Z,52.41
2019-03-30T09:47:25.088Z,51.34
2019-03-30T09:49:49.534Z,51.31
2019-03-30T09:52:13.952Z,51.24
2019-03-30T09:54:38.392Z,51.43
2019-03-30T09:57:02.808Z,50.82
2019-03-30T09:59:27.233Z,49.84
2019-03-30T10:01:51.650Z,48.62
2019-03-30T10:04:16.089Z,49.04
2019-03-30T10:06:40.507Z,47.23
2019-03-30T10:09:06.597Z,46.88
2019-03-30T10:11:31.003Z,46.47
2019-03-30T10:13:55.412Z,47.16
2019-03-30T10:16:19.847Z,46.25
2019-03-30T10:18:44.255Z,46.07
2019-03-30T10:21:08.699Z,45.72
2019-03-30T10:23:33.192Z,45.50
2019-03-30T10:25:57.736Z,45.12
2019-03-30T10:28:22.254Z,45.63
2019-03-30T10:30:46.687Z,46.69
2019-03-30T10:33:11.718Z,44.39
2019-03-30T10:35:36.343Z,43.49
2019-03-30T10:38:00.769Z,43.42
2019-03-30T10:40:25.203Z,42.66
2019-03-30T10:42:49.621Z,42.32
2019-03-30T10:45:14.297Z,42.86
2019-03-30T10:47:38.707Z,43.32
2019-03-30T10:50:03.995Z,43.74
2019-03-30T10:52:28.414Z,42.73
2019-03-30T10:54:53.384Z,43.51
2019-03-30T10:57:18.639Z,43.48
2019-03-30T10:59:43.271Z,43.06
2019-03-30T11:02:07.771Z,42.87
2019-03-30T11:04:32.194Z,42.34
2019-03-30T11:06:56.642Z,41.43
2019-03-30T11:09:21.219Z,41.64
2019-03-30T11:11:45.672Z,41.61
2019-03-30T11:14:10.127Z,41.40
2019-03-30T11:16:34.562Z,40.91
2019-03-30T11:18:59.052Z,40.96
2019-03-30T11:21:23.486Z,40.83
2019-03-30T11:23:47.910Z,40.41
2019-03-30T11:26:12.412Z,39.62
2019-03-30T11:28:36.934Z,39.97
2019-03-30T11:31:01.468Z,41.07
2019-03-30T11:33:25.888Z,40.86
2019-03-30T11:35:50.671Z,41.62
2019-03-30T11:38:15.096Z,40.84
2019-03-30T11:40:39.512Z,41.34
2019-03-30T11:43:03.922Z,41.06
2019-03-30T11:45:28.612Z,41.54
2019-03-30T11:47:53.025Z,40.59
2019-03-30T11:50:17.538Z,40.59
2019-03-30T11:52:41.950Z,40.98
2019-03-30T11:55:20.915Z,41.11
2019-03-30T11:57:34.034Z,41.10
2019-03-30T11:59:58.447Z,41.60
2019-03-30T12:02:28.156Z,40.42
2019-03-30T12:04:49.128Z,40.29
2019-03-30T12:07:13.567Z,40.42
2019-03-30T12:09:37.981Z,40.94
2019-03-30T12:12:02.401Z,40.27
2019-03-30T12:14:26.821Z,41.11
2019-03-30T12:16:51.266Z,39.62
2019-03-30T12:19:15.688Z,39.85
2019-03-30T12:21:40.603Z,39.70
2019-03-30T12:24:05.044Z,40.30
2019-03-30T12:26:29.485Z,39.74
2019-03-30T12:28:53.901Z,38.77
2019-03-30T12:31:18.358Z,38.82
2019-03-30T12:33:42.839Z,38.57
2019-03-30T12:36:07.359Z,37.75
2019-03-30T12:38:31.846Z,37.15
2019-03-30T12:40:58.007Z,36.71
2019-03-30T12:43:22.483Z,35.20
2019-03-30T12:45:46.933Z,36.65
2019-03-30T12:48:11.516Z,36.17
2019-03-30T12:50:35.925Z,36.04
2019-03-30T12:53:00.372Z,36.96
2019-03-30T12:55:24.783Z,37.51
2019-03-30T12:57:49.222Z,36.86
2019-03-30T13:00:14.038Z,36.60
2019-03-30T13:02:38.488Z,34.97
2019-03-30T13:05:02.975Z,30.28
2019-03-30T13:07:27.413Z,29.46
2019-03-30T13:09:51.820Z,29.46
2019-03-30T13:12:16.259Z,27.76
2019-03-30T13:14:40.662Z,28.07
2019-03-30T13:17:05.111Z,28.23
2019-03-30T13:19:29.519Z,29.48
2019-03-30T13:21:53.953Z,29.30
2019-03-30T13:24:18.436Z,28.35
2019-03-30T13:26:42.898Z,28.28
2019-03-30T13:29:07.452Z,26.66
2019-03-30T13:31:31.930Z,25.74
2019-03-30T13:33:56.365Z,27.30
2019-03-30T13:36:22.418Z,24.06
2019-03-30T13:38:46.843Z,25.47
2019-03-30T13:41:13.941Z,24.70
2019-03-30T13:43:37.383Z,25.24
2019-03-30T13:46:01.798Z,28.03
2019-03-30T13:48:26.238Z,26.02
2019-03-30T13:50:50.661Z,27.22
2019-03-30T13:53:15.106Z,24.84
2019-03-30T13:55:39.502Z,25.25
2019-03-30T13:58:04.108Z,24.46
2019-03-30T14:00:28.505Z,30.21
2019-03-30T14:02:52.948Z,30.27
2019-03-30T14:05:17.356Z,30.27
2019-03-30T14:07:41.863Z,32.87
2019-03-30T14:10:08.520Z,27.13
2019-03-30T14:12:32.990Z,27.61
2019-03-30T14:14:57.410Z,33.41
2019-03-30T14:17:21.816Z,30.09
2019-03-30T14:19:47.734Z,32.65
2019-03-30T14:22:12.151Z,32.65
2019-03-30T14:24:36.578Z,34.00
2019-03-30T14:27:00.985Z,35.56
2019-03-30T14:29:25.515Z,31.01
2019-03-30T14:31:49.920Z,30.27
2019-03-30T14:34:14.343Z,30.27
2019-03-30T14:36:38.761Z,28.47
2019-03-30T14:39:04.617Z,27.81
2019-03-30T14:41:29.038Z,27.70
2019-03-30T14:43:53.449Z,33.26
2019-03-30T14:46:17.930Z,34.30
2019-03-30T14:48:42.431Z,26.80
2019-03-30T14:51:06.901Z,26.80
2019-03-30T14:53:31.319Z,25.25
2019-03-30T14:55:55.720Z,24.62
2019-03-30T14:58:20.306Z,27.73
2019-03-30T15:00:44.770Z,31.50
2019-03-30T15:03:09.228Z,30.51
2019-03-30T15:05:33.667Z,29.62
2019-03-30T15:07:58.059Z,29.62
2019-03-30T15:10:22.552Z,30.07
2019-03-30T15:12:46.955Z,29.70
2019-03-30T15:15:12.928Z,31.95
2019-03-30T15:17:40.463Z,32.90
2019-03-30T15:20:04.651Z,33.91
2019-03-30T15:22:29.057Z,32.74
2019-03-30T15:24:53.490Z,30.02
2019-03-30T15:27:18.376Z,31.05
2019-03-30T15:29:45.413Z,31.05
2019-03-30T15:32:08.910Z,29.53
2019-03-30T15:34:33.345Z,32.14
2019-03-30T15:36:57.817Z,27.69
2019-03-30T15:39:22.412Z,32.20
2019-03-30T15:41:46.832Z,33.54
2019-03-30T15:44:11.287Z,35.10
2019-03-30T15:46:35.689Z,35.10
2019-03-30T15:49:00.120Z,33.80
2019-03-30T15:51:24.589Z,35.27
2019-03-30T15:53:50.034Z,37.36
2019-03-30T15:56:14.913Z,37.40
2019-03-30T15:58:39.327Z,36.71
2019-03-30T16:01:03.814Z,36.66
2019-03-30T16:03:29.096Z,36.75
2019-03-30T16:05:53.528Z,36.93
2019-03-30T16:08:18.087Z,37.59
2019-03-30T16:10:42.518Z,37.02
2019-03-30T16:13:06.919Z,36.95
2019-03-30T16:15:31.342Z,36.62
2019-03-30T16:17:55.749Z,36.30
2019-03-30T16:20:20.243Z,37.59
2019-03-30T16:22:45.980Z,37.21
2019-03-30T16:25:10.533Z,37.63
2019-03-30T16:27:35.082Z,37.68
2019-03-30T16:29:59.522Z,37.25
2019-03-30T16:32:23.931Z,37.71
2019-03-30T16:34:48.387Z,38.11
2019-03-30T16:37:12.865Z,37.27
2019-03-30T16:39:37.335Z,37.50
2019-03-30T16:42:01.774Z,37.64
2019-03-30T16:44:26.187Z,37.95
2019-03-30T16:46:50.677Z,37.91
2019-03-30T16:49:15.101Z,38.60
2019-03-30T16:51:39.548Z,38.46
2019-03-30T16:54:04.406Z,38.02
2019-03-30T16:56:28.836Z,38.49
2019-03-30T16:58:53.255Z,40.07
2019-03-30T17:01:17.678Z,41.47
2019-03-30T17:03:42.086Z,40.72
2019-03-30T17:06:06.511Z,40.19
2019-03-30T17:08:30.945Z,40.54
2019-03-30T17:10:55.369Z,39.93
2019-03-30T17:13:19.794Z,40.12
2019-03-30T17:15:44.197Z,40.89
2019-03-30T17:18:08.634Z,41.37
2019-03-30T17:20:33.047Z,41.57
2019-03-30T17:22:58.994Z,41.71
2019-03-30T17:25:23.489Z,41.48
2019-03-30T17:27:58.246Z,41.40
2019-03-30T17:30:14.367Z,42.21
2019-03-30T17:32:38.944Z,41.92
2019-03-30T17:35:04.046Z,41.75
2019-03-30T17:37:28.570Z,40.89
2019-03-30T17:39:52.981Z,41.33
2019-03-30T17:42:17.497Z,41.70
2019-03-30T17:44:41.919Z,41.64
2019-03-30T17:47:06.438Z,42.03
2019-03-30T17:49:30.839Z,42.10
2019-03-30T17:51:55.264Z,42.23
2019-03-30T17:54:19.737Z,42.40
2019-03-30T17:56:44.190Z,41.61
2019-03-30T17:59:08.588Z,40.38
2019-03-30T18:01:33.493Z,40.33
2019-03-30T18:03:57.897Z,41.72
2019-03-30T18:06:22.309Z,41.28
2019-03-30T18:08:46.755Z,40.50
2019-03-30T18:11:11.325Z,39.76
2019-03-30T18:13:36.947Z,39.92
2019-03-30T18:16:01.543Z,39.68
2019-03-30T18:18:25.971Z,40.16
2019-03-30T18:20:50.383Z,41.00
2019-03-30T18:23:14.819Z,41.21
2019-03-30T18:25:39.241Z,41.34
2019-03-30T18:28:03.741Z,41.39
2019-03-30T18:30:39.642Z,40.80
2019-03-30T18:33:04.235Z,40.80
2019-03-30T18:35:30.612Z,40.62
2019-03-30T18:37:55.416Z,40.79
2019-03-30T18:40:28.547Z,40.44
2019-03-30T18:42:53.129Z,40.23
2019-03-30T18:45:28.053Z,40.15
2019-03-30T18:47:53.222Z,40.49
2019-03-30T18:50:17.877Z,40.33
2019-03-30T18:52:42.720Z,40.92
2019-03-30T18:55:08.066Z,40.73
2019-03-30T18:57:32.467Z,41.03
2019-03-30T18:59:56.899Z,41.39
2019-03-30T19:02:21.301Z,41.14
2019-03-30T19:04:45.730Z,41.12
2019-03-30T19:07:10.160Z,41.23
2019-03-30T19:09:34.590Z,41.84
2019-03-30T19:11:59.011Z,41.78
2019-03-30T19:14:23.531Z,41.86
2019-03-30T19:16:47.933Z,43.20
2019-03-30T19:19:12.357Z,43.37
2019-03-30T19:21:36.791Z,44.19
2019-03-30T19:24:01.291Z,45.14
2019-03-30T19:26:25.694Z,44.99
2019-03-30T19:28:56.579Z,44.08
2019-03-30T19:31:19.415Z,43.90
2019-03-30T19:33:43.841Z,44.23
2019-03-30T19:36:10.031Z,44.32
2019-03-30T19:38:34.451Z,42.84
2019-03-30T19:40:58.860Z,42.71
2019-03-30T19:43:23.283Z,43.05
2019-03-30T19:45:47.868Z,43.07
2019-03-30T19:48:12.291Z,43.03
2019-03-30T19:50:36.781Z,42.89
2019-03-30T19:53:01.217Z,42.94
2019-03-30T19:55:27.312Z,42.87
2019-03-30T19:57:51.715Z,42.94
2019-03-30T20:00:16.755Z,42.99
2019-03-30T20:02:41.439Z,42.79
2019-03-30T20:05:08.426Z,43.13
2019-03-30T20:07:32.918Z,42.86
2019-03-30T20:09:57.359Z,42.70
2019-03-30T20:12:21.857Z,43.06
2019-03-30T20:14:46.410Z,43.05
2019-03-30T20:17:10.836Z,43.69
2019-03-30T20:19:35.273Z,43.77
2019-03-30T20:21:59.708Z,43.56
2019-03-30T20:24:24.156Z,43.18
2019-03-30T20:26:48.606Z,43.31
2019-03-30T20:29:24.658Z,43.34
2019-03-30T20:31:39.171Z,43.73
2019-03-30T20:34:03.660Z,45.06
2019-03-30T20:36:28.085Z,45.83
2019-03-30T20:38:52.492Z,45.74
2019-03-30T20:41:16.926Z,46.41
2019-03-30T20:43:41.339Z,46.08
2019-03-30T20:46:05.770Z,46.78
2019-03-30T20:48:30.183Z,47.31
2019-03-30T20:50:54.596Z,48.40
2019-03-30T20:53:19.004Z,50.53
2019-03-30T20:55:43.455Z,49.85
2019-03-30T20:58:07.989Z,49.08
2019-03-30T21:00:32.495Z,47.61
2019-03-30T21:02:56.975Z,47.63
2019-03-30T21:05:21.409Z,47.44
2019-03-30T21:07:45.836Z,48.74
2019-03-30T21:10:10.821Z,50.11
2019-03-30T21:12:35.237Z,52.60
2019-03-30T21:14:59.691Z,53.45
2019-03-30T21:17:24.117Z,52.20
2019-03-30T21:19:48.605Z,50.25
2019-03-30T21:22:13.040Z,50.83
2019-03-30T21:24:37.447Z,49.70
2019-03-30T21:27:01.955Z,49.34
2019-03-30T21:29:26.378Z,49.70
2019-03-30T21:31:50.817Z,49.42
2019-03-30T21:34:15.214Z,49.44
2019-03-30T21:36:39.637Z,49.92
2019-03-30T21:39:05.998Z,49.92
2019-03-30T21:41:30.436Z,49.82
2019-03-30T21:43:54.852Z,49.64
2019-03-30T21:46:19.306Z,49.71
2019-03-30T21:48:43.712Z,49.74
2019-03-30T21:51:08.172Z,50.03
2019-03-30T21:53:32.587Z,49.98
2019-03-30T21:55:57.032Z,50.11
2019-03-30T21:58:21.461Z,50.17
2019-03-30T22:00:45.929Z,50.23
2019-03-30T22:03:10.729Z,50.63
2019-03-30T22:05:35.791Z,50.97
2019-03-30T22:08:00.771Z,51.08
2019-03-30T22:10:27.303Z,50.80
2019-03-30T22:12:51.730Z,51.38
2019-03-30T22:15:19.182Z,51.53
2019-03-30T22:17:43.620Z,51.41
2019-03-30T22:20:08.127Z,51.42
2019-03-30T22:22:32.564Z,52.68
2019-03-30T22:24:56.988Z,53.88
2019-03-30T22:27:21.435Z,54.14
2019-03-30T22:29:45.873Z,54.38
2019-03-30T22:32:10.321Z,55.02
2019-03-30T22:34:34.811Z,54.64
2019-03-30T22:36:59.270Z,53.64
2019-03-30T22:39:23.706Z,54.45
2019-03-30T22:41:48.139Z,54.22
2019-03-30T22:44:12.614Z,53.92
2019-03-30T22:46:37.014Z,53.79
2019-03-30T22:49:01.546Z,53.36
2019-03-30T22:51:25.989Z,53.19
2019-03-30T22:53:50.437Z,53.68
2019-03-30T22:56:14.932Z,53.36
2019-03-30T22:58:39.582Z,53.88
2019-03-30T23:01:05.781Z,53.63
2019-03-30T23:03:30.271Z,53.72
2019-03-30T23:05:54.834Z,53.68
2019-03-30T23:08:19.339Z,53.85
2019-03-30T23:10:43.793Z,54.39
2019-03-30T23:13:08.326Z,54.15
2019-03-30T23:15:32.954Z,54.21
2019-03-30T23:17:57.551Z,54.53
2019-03-30T23:20:22.044Z,54.19
2019-03-30T23:22:46.477Z,54.23
2019-03-30T23:25:10.990Z,54.69
2019-03-30T23:27:35.477Z,54.30
2019-03-30T23:29:59.906Z,54.25
2019-03-30T23:32:24.320Z,54.15
2019-03-30T23:34:48.765Z,54.29
2019-03-30T23:37:13.197Z,54.34
2019-03-30T23:39:37.632Z,54.19
2019-03-30T23:42:02.044Z,54.31
2019-03-30T23:44:26.551Z,54.38
2019-03-30T23:46:50.970Z,54.25
2019-03-30T23:49:15.421Z,54.44
2019-03-30T23:51:39.832Z,55.33
2019-03-30T23:54:04.420Z,56.12
2019-03-30T23:56:28.920Z,56.09
2019-03-30T23:58:53.498Z,56.38
